Time;durP1;ratioP1;P1;durP2;ratioP2;P2;SDS_P1;SDS_P2;PMS_P1;PMS_P2;Temp;Humidity;BMP_temperature;BMP_pressure;BME280_temperature;BME280_humidity;BME280_pressure;Samples;Min_cycle;Max_cycle;Signal;HPM_P1;HPM_P2
2022/04/05 00:01:07;;;;;;;;;;;;;;;30.64;19.29;100780.00;5020540;28;743;-42
2022/04/05 00:03:32;;;;;;;;;;;;;;;30.29;19.21;100776.38;5021323;28;897;-39
2022/04/05 00:05:58;;;;;;;;;;;;;;;29.90;19.66;100770.56;5019916;28;826;-39
2022/04/05 00:08:23;;;;;;;;;;;;;;;29.75;20.07;100773.41;5020557;28;834;-41
2022/04/05 00:10:48;;;;;;;;;;;;;;;29.51;20.31;100764.69;5023622;28;1958;-39
2022/04/05 00:13:13;;;;;;;;;;;;;;;29.38;20.25;100767.34;5019873;28;885;-37
2022/04/05 00:15:39;;;;;;;;;;;;;;;29.23;20.62;100765.53;5020102;28;830;-39
2022/04/05 00:18:04;;;;;;;;;;;;;;;29.41;20.73;100765.03;5024563;28;790;-40
2022/04/05 00:20:30;;;;;;;;;;;;;;;29.52;20.68;100760.97;5030957;28;1575;-39
2022/04/05 00:22:55;;;;;;;;;;;;;;;29.91;20.08;100758.66;5020398;28;795;-37
2022/04/05 00:25:20;;;;;;;;;;;;;;;30.33;19.73;100759.69;5022701;28;870;-40
2022/04/05 00:27:47;;;;;;;;;;;;;;;30.21;19.69;100752.16;5020037;28;962;-38
2022/04/05 00:30:13;;;;;;;;;;;;;;;29.82;19.66;100744.47;5020487;28;1965;-39
2022/04/05 00:32:38;;;;;;;;;;;;;;;29.80;19.57;100742.97;5019881;28;830;-40
2022/04/05 00:35:04;;;;;;;;;;;;;;;30.59;19.24;100739.06;5019447;28;897;-39
2022/04/05 00:37:29;;;;;;;;;;;;;;;30.63;19.09;100746.56;5019778;28;1018;-39
2022/04/05 00:39:54;;;;;;;;;;;;;;;29.96;19.67;100736.38;5026778;28;1014;-41
2022/04/05 00:42:20;;;;;;;;;;;;;;;29.67;20.08;100738.34;5023090;28;836;-39
2022/04/05 00:44:45;;;;;;;;;;;;;;;29.62;20.18;100746.22;5019610;28;862;-38
2022/04/05 00:47:20;;;;;;;;;;;;;;;29.48;20.23;100748.81;5019609;28;841;-38
2022/04/05 00:49:46;;;;;;;;;;;;;;;28.96;20.90;100743.66;5019400;28;1923;-39
2022/04/05 00:52:12;;;;;;;;;;;;;;;29.04;20.92;100740.00;5019363;28;771;-36
2022/04/05 00:54:38;;;;;;;;;;;;;;;29.24;20.90;100737.44;5024765;28;836;-38
2022/04/05 00:57:03;;;;;;;;;;;;;;;29.07;21.35;100729.63;5019394;28;755;-39
2022/04/05 00:59:29;;;;;;;;;;;;;;;29.48;20.95;100723.63;5017867;28;830;-39
2022/04/05 01:01:54;;;;;;;;;;;;;;;30.14;20.07;100724.13;5017895;28;873;-37
2022/04/05 01:04:20;;;;;;;;;;;;;;;30.17;20.13;100727.28;5018646;28;754;-38
2022/04/05 01:06:45;;;;;;;;;;;;;;;29.89;20.04;100720.09;5017054;28;819;-37
2022/04/05 01:09:11;;;;;;;;;;;;;;;30.02;19.99;100724.72;5025680;28;1894;-40
2022/04/05 01:11:36;;;;;;;;;;;;;;;30.65;19.46;100725.50;5019465;28;808;-39
2022/04/05 01:14:02;;;;;;;;;;;;;;;30.38;19.73;100725.44;5019018;28;819;-40
2022/04/05 01:16:27;;;;;;;;;;;;;;;30.01;20.10;100712.19;5018715;28;882;-39
2022/04/05 01:18:52;;;;;;;;;;;;;;;29.88;20.40;100710.25;5017817;28;826;-39
2022/04/05 01:21:18;;;;;;;;;;;;;;;29.55;20.67;100703.63;5030344;28;846;-40
2022/04/05 01:24:02;;;;;;;;;;;;;;;29.45;20.84;100701.28;5037614;28;812;-36
2022/04/05 01:26:27;;;;;;;;;;;;;;;29.33;20.95;100706.44;5018885;28;887;-38
2022/04/05 01:28:53;;;;;;;;;;;;;;;29.21;21.12;100710.75;5018882;28;1951;-39
2022/04/05 01:31:18;;;;;;;;;;;;;;;29.44;21.10;100707.75;5018897;28;1128;-38
2022/04/05 01:33:43;;;;;;;;;;;;;;;29.16;21.50;100700.50;5021440;28;858;-39
2022/04/05 01:36:19;;;;;;;;;;;;;;;29.40;21.11;100686.66;5018765;28;789;-38
2022/04/05 01:38:44;;;;;;;;;;;;;;;30.19;20.20;100695.34;5020244;28;1275;-38
2022/04/05 01:41:10;;;;;;;;;;;;;;;30.25;20.22;100693.72;5022886;28;984;-37
2022/04/05 01:43:35;;;;;;;;;;;;;;;29.90;20.45;100693.78;5017903;28;779;-39
2022/04/05 01:46:00;;;;;;;;;;;;;;;29.85;20.49;100688.97;5024145;28;1459;-39
2022/04/05 01:48:25;;;;;;;;;;;;;;;30.41;19.92;100676.19;5018627;28;801;-41
2022/04/05 01:50:51;;;;;;;;;;;;;;;30.71;19.68;100691.25;5017843;28;1906;-38
2022/04/05 01:53:16;;;;;;;;;;;;;;;30.09;20.34;100689.47;5018694;28;849;-39
2022/04/05 01:55:41;;;;;;;;;;;;;;;29.85;20.73;100680.00;5022310;28;832;-39
2022/04/05 01:58:06;;;;;;;;;;;;;;;29.67;20.85;100684.13;5020375;28;773;-39
2022/04/05 02:00:32;;;;;;;;;;;;;;;29.42;20.87;100674.59;5018136;28;758;-39
2022/04/05 02:02:57;;;;;;;;;;;;;;;29.23;21.03;100678.03;5017858;28;841;-39
2022/04/05 02:05:23;;;;;;;;;;;;;;;29.25;21.31;100671.38;5017722;28;884;-39
2022/04/05 02:07:48;;;;;;;;;;;;;;;29.49;21.25;100674.63;5018572;28;821;-38
2022/04/05 02:10:13;;;;;;;;;;;;;;;29.28;21.45;100678.28;5019796;28;1925;-36
2022/04/05 02:12:40;;;;;;;;;;;;;;;29.41;21.24;100674.81;5023021;28;841;-39
2022/04/05 02:15:06;;;;;;;;;;;;;;;29.83;20.78;100669.34;5018268;28;881;-41
2022/04/05 02:17:31;;;;;;;;;;;;;;;30.18;20.48;100666.53;5017767;28;838;-39
2022/04/05 02:19:57;;;;;;;;;;;;;;;30.18;20.29;100658.41;5016879;28;754;-37
2022/04/05 02:22:22;;;;;;;;;;;;;;;30.05;20.37;100663.78;5017714;28;798;-39
2022/04/05 02:24:47;;;;;;;;;;;;;;;29.98;20.76;100669.19;5025170;28;862;-38
2022/04/05 02:27:12;;;;;;;;;;;;;;;30.74;19.77;100671.81;5017413;28;886;-40
2022/04/05 02:29:38;;;;;;;;;;;;;;;30.39;20.00;100669.31;5017683;28;1963;-39
2022/04/05 02:32:03;;;;;;;;;;;;;;;30.06;20.34;100665.47;5017092;28;810;-39
2022/04/05 02:34:28;;;;;;;;;;;;;;;29.90;20.40;100677.50;5017350;28;817;-38
2022/04/05 02:36:54;;;;;;;;;;;;;;;29.56;20.83;100667.34;5022397;28;878;-39
2022/04/05 02:39:19;;;;;;;;;;;;;;;29.58;21.13;100669.84;5021745;28;1209;-40
2022/04/05 02:41:44;;;;;;;;;;;;;;;29.33;20.98;100673.94;5031594;28;878;-38
2022/04/05 02:44:10;;;;;;;;;;;;;;;29.10;21.45;100671.50;5035090;28;802;-39
2022/04/05 02:46:35;;;;;;;;;;;;;;;29.30;21.46;100668.91;5017022;28;826;-40
2022/04/05 02:49:00;;;;;;;;;;;;;;;29.08;21.98;100671.69;5019014;28;1999;-39
2022/04/05 02:51:26;;;;;;;;;;;;;;;29.37;21.52;100673.53;5017339;28;814;-39
2022/04/05 02:53:51;;;;;;;;;;;;;;;29.82;20.95;100665.84;5019915;28;876;-38
2022/04/05 02:56:16;;;;;;;;;;;;;;;29.78;21.03;100659.13;5017199;28;840;-38
2022/04/05 02:58:43;;;;;;;;;;;;;;;30.10;20.51;100660.44;5017380;28;751;-39
2022/04/05 03:01:08;;;;;;;;;;;;;;;29.95;20.65;100661.47;5017099;28;730;-38
2022/04/05 03:03:33;;;;;;;;;;;;;;;29.91;20.71;100657.50;5021231;28;837;-39
2022/04/05 03:05:59;;;;;;;;;;;;;;;30.30;20.29;100650.50;5017201;28;850;-40
2022/04/05 03:08:25;;;;;;;;;;;;;;;30.72;19.93;100649.47;5017279;28;901;-37
2022/04/05 03:10:50;;;;;;;;;;;;;;;30.18;20.18;100647.53;5023440;28;1969;-39
2022/04/05 03:13:15;;;;;;;;;;;;;;;29.98;20.41;100644.78;5016556;28;817;-39
2022/04/05 03:15:41;;;;;;;;;;;;;;;29.67;20.79;100640.75;5017416;28;812;-39
2022/04/05 03:18:06;;;;;;;;;;;;;;;29.45;21.15;100644.38;5015756;28;870;-39
2022/04/05 03:20:31;;;;;;;;;;;;;;;29.27;21.16;100642.22;5017356;28;811;-39
2022/04/05 03:22:59;;;;;;;;;;;;;;;29.01;21.45;100637.50;5016594;28;837;-39
2022/04/05 03:25:24;;;;;;;;;;;;;;;29.29;21.84;100636.59;5022139;28;911;-37
2022/04/05 03:27:49;;;;;;;;;;;;;;;29.29;21.62;100631.19;5018837;28;1375;-36
2022/04/05 03:30:15;;;;;;;;;;;;;;;29.43;21.49;100632.06;5019616;28;1910;-39
2022/04/05 03:32:40;;;;;;;;;;;;;;;29.94;21.11;100632.69;5028775;28;1342;-39
2022/04/05 03:35:06;;;;;;;;;;;;;;;30.08;19.79;100641.69;5031598;28;1108;-40
2022/04/05 03:37:31;;;;;;;;;;;;;;;27.49;17.68;100634.53;5020487;28;1479;-36
2022/04/05 03:39:56;;;;;;;;;;;;;;;26.03;19.26;100631.78;5024646;28;895;-37
2022/04/05 03:42:22;;;;;;;;;;;;;;;25.84;19.38;100627.72;5020917;28;930;-33
2022/04/05 03:44:47;;;;;;;;;;;;;;;25.89;21.97;100630.72;5020765;28;866;-40
2022/04/05 03:47:13;;;;;;;;;;;;;;;27.57;20.58;100629.03;5021165;28;1200;-40
2022/04/05 03:49:38;;;;;;;;;;;;;;;28.55;19.45;100639.63;5023121;28;1902;-42
2022/04/05 03:52:03;;;;;;;;;;;;;;;29.14;18.51;100636.72;5020672;28;838;-36
2022/04/05 03:54:29;;;;;;;;;;;;;;;28.59;19.00;100638.22;5025640;28;1157;-33
2022/04/05 03:56:54;;;;;;;;;;;;;;;28.19;18.86;100635.97;5029050;28;1240;-38
2022/04/05 03:59:19;;;;;;;;;;;;;;;28.13;19.02;100640.25;5031661;28;1250;-37
2022/04/05 04:01:45;;;;;;;;;;;;;;;26.56;19.23;100636.47;5025125;28;1184;-38
2022/04/05 04:04:10;;;;;;;;;;;;;;;26.12;19.61;100637.97;5020101;28;814;-36
2022/04/05 04:06:35;;;;;;;;;;;;;;;27.91;19.11;100636.72;5019486;28;842;-36
2022/04/05 04:09:01;;;;;;;;;;;;;;;27.65;19.11;100633.47;5024104;28;1902;-39
2022/04/05 04:11:26;;;;;;;;;;;;;;;27.32;19.12;100626.63;5022046;28;1039;-37
2022/04/05 04:13:51;;;;;;;;;;;;;;;27.17;19.17;100626.63;5020008;28;781;-36
2022/04/05 04:16:17;;;;;;;;;;;;;;;27.22;18.73;100631.47;5020062;28;782;-38
2022/04/05 04:18:42;;;;;;;;;;;;;;;27.35;19.16;100636.22;5023065;28;803;-34
2022/04/05 04:21:08;;;;;;;;;;;;;;;27.45;18.87;100644.88;5020197;28;877;-35
2022/04/05 04:23:33;;;;;;;;;;;;;;;27.51;18.88;100633.31;5020575;28;892;-36
2022/04/05 04:25:58;;;;;;;;;;;;;;;27.68;18.68;100635.81;5023311;28;950;-36
2022/04/05 04:28:23;;;;;;;;;;;;;;;27.73;18.64;100636.09;5019720;28;933;-38
2022/04/05 04:30:49;;;;;;;;;;;;;;;27.98;18.33;100645.72;5019121;28;1958;-35
2022/04/05 04:33:14;;;;;;;;;;;;;;;28.33;18.37;100645.91;5033421;28;849;-37
2022/04/05 04:35:40;;;;;;;;;;;;;;;28.67;18.55;100646.19;5038743;28;755;-38
2022/04/05 04:38:06;;;;;;;;;;;;;;;28.90;18.47;100638.81;5037435;28;1034;-37
2022/04/05 04:40:32;;;;;;;;;;;;;;;29.10;18.60;100641.69;5024574;28;930;-37
2022/04/05 04:42:57;;;;;;;;;;;;;;;29.24;18.44;100647.19;5018610;28;770;-37
2022/04/05 04:45:26;;;;;;;;;;;;;;;29.37;18.63;100643.72;5022353;28;818;-37
2022/04/05 04:47:51;;;;;;;;;;;;;;;28.12;20.51;100652.13;5032319;28;834;-37
2022/04/05 04:50:17;;;;;;;;;;;;;;;27.70;20.78;100647.28;5033561;28;1910;-39
2022/04/05 04:52:42;;;;;;;;;;;;;;;28.75;20.03;100649.75;5038090;28;976;-39
2022/04/05 04:55:07;;;;;;;;;;;;;;;28.83;19.80;100641.50;5032169;28;869;-38
2022/04/05 04:57:33;;;;;;;;;;;;;;;28.90;19.98;100652.38;5025609;28;967;-39
2022/04/05 04:59:58;;;;;;;;;;;;;;;28.90;20.15;100650.50;5019265;28;826;-39
2022/04/05 05:02:23;;;;;;;;;;;;;;;28.94;20.18;100645.53;5019112;28;758;-39
2022/04/05 05:04:49;;;;;;;;;;;;;;;28.17;20.88;100641.56;5019196;28;862;-37
2022/04/05 05:07:15;;;;;;;;;;;;;;;27.80;21.30;100638.88;5019188;28;869;-39
2022/04/05 05:09:40;;;;;;;;;;;;;;;28.63;20.69;100646.78;5023213;28;1957;-40
2022/04/05 05:12:06;;;;;;;;;;;;;;;28.68;20.47;100653.25;5019074;28;795;-41
2022/04/05 05:14:31;;;;;;;;;;;;;;;28.51;20.96;100651.88;5018855;28;885;-39
2022/04/05 05:16:56;;;;;;;;;;;;;;;27.96;21.49;100640.50;5018490;28;814;-38
2022/04/05 05:19:21;;;;;;;;;;;;;;;27.62;21.96;100642.81;5019070;28;826;-40
2022/04/05 05:21:47;;;;;;;;;;;;;;;27.40;22.12;100650.00;5020082;28;840;-39
2022/04/05 05:24:12;;;;;;;;;;;;;;;27.30;22.10;100644.03;5025354;28;1004;-39
2022/04/05 05:26:37;;;;;;;;;;;;;;;28.38;21.27;100642.59;5018353;28;743;-40
2022/04/05 05:29:03;;;;;;;;;;;;;;;28.70;20.86;100655.78;5018182;28;1957;-39
2022/04/05 05:31:28;;;;;;;;;;;;;;;28.15;20.78;100646.31;5018906;28;774;-40
2022/04/05 05:33:53;;;;;;;;;;;;;;;28.81;20.43;100646.28;5018402;28;877;-41
2022/04/05 05:36:19;;;;;;;;;;;;;;;28.75;19.85;100649.75;5021110;28;954;-39
2022/04/05 05:38:44;;;;;;;;;;;;;;;28.64;19.77;100654.69;5031611;28;1128;-40
2022/04/05 05:41:09;;;;;;;;;;;;;;;27.57;19.95;100653.34;5018256;28;869;-42
2022/04/05 05:43:35;;;;;;;;;;;;;;;27.04;19.99;100645.34;5018393;28;830;-40
2022/04/05 05:46:03;;;;;;;;;;;;;;;28.41;19.23;100649.50;5018348;28;793;-39
2022/04/05 05:48:28;;;;;;;;;;;;;;;28.43;18.87;100655.53;5026235;28;1018;-42
2022/04/05 05:50:55;;;;;;;;;;;;;;;28.30;19.04;100656.22;5032202;28;1902;-41
2022/04/05 05:53:21;;;;;;;;;;;;;;;28.24;19.12;100658.66;5036820;28;922;-38
2022/04/05 05:55:48;;;;;;;;;;;;;;;28.25;18.82;100651.41;5024813;28;883;-40
2022/04/05 05:58:13;;;;;;;;;;;;;;;27.24;19.52;100649.16;5018283;28;794;-39
2022/04/05 06:00:39;;;;;;;;;;;;;;;26.95;20.19;100648.09;5019921;28;818;-37
2022/04/05 06:03:04;;;;;;;;;;;;;;;27.21;19.85;100649.53;5028808;28;1004;-40
2022/04/05 06:05:29;;;;;;;;;;;;;;;27.05;19.67;100647.84;5036946;28;826;-40
2022/04/05 06:07:55;;;;;;;;;;;;;;;26.65;20.19;100651.59;5037605;28;814;-39
2022/04/05 06:10:21;;;;;;;;;;;;;;;26.32;20.71;100642.88;5025852;28;1949;-40
2022/04/05 06:12:47;;;;;;;;;;;;;;;26.18;20.77;100648.03;5020015;28;821;-40
2022/04/05 06:15:13;;;;;;;;;;;;;;;26.23;20.74;100648.34;5021014;28;805;-42
2022/04/05 06:17:39;;;;;;;;;;;;;;;26.22;20.86;100651.22;5017379;28;827;-41
2022/04/05 06:20:05;;;;;;;;;;;;;;;26.18;20.60;100645.34;5018299;28;806;-40
2022/04/05 06:22:30;;;;;;;;;;;;;;;26.04;20.75;100644.28;5018182;28;826;-39
2022/04/05 06:24:56;;;;;;;;;;;;;;;27.05;19.94;100639.75;5019735;28;884;-40
2022/04/05 06:27:21;;;;;;;;;;;;;;;27.63;19.32;100635.53;5018708;28;896;-40
2022/04/05 06:29:46;;;;;;;;;;;;;;;27.57;19.36;100633.59;5017632;28;1956;-39
2022/04/05 06:32:12;;;;;;;;;;;;;;;27.10;20.37;100631.94;5017583;28;828;-38
2022/04/05 06:34:37;;;;;;;;;;;;;;;28.80;18.45;100634.63;5017550;28;727;-40
2022/04/05 06:37:02;;;;;;;;;;;;;;;28.90;18.53;100633.41;5017542;28;1051;-38
2022/04/05 06:39:28;;;;;;;;;;;;;;;29.02;18.42;100631.03;5027484;28;1126;-40
2022/04/05 06:41:53;;;;;;;;;;;;;;;28.70;19.08;100631.41;5017602;28;1057;-39
2022/04/05 06:44:19;;;;;;;;;;;;;;;28.09;20.07;100631.69;5017588;28;778;-38
2022/04/05 06:46:44;;;;;;;;;;;;;;;27.96;20.06;100628.88;5016940;28;797;-38
2022/04/05 06:49:10;;;;;;;;;;;;;;;29.21;18.50;100626.78;5023225;28;1902;-39
2022/04/05 06:51:35;;;;;;;;;;;;;;;29.40;18.37;100621.63;5030387;28;881;-38
2022/04/05 06:54:00;;;;;;;;;;;;;;;28.66;19.55;100627.44;5020880;28;868;-40
2022/04/05 06:56:26;;;;;;;;;;;;;;;28.44;19.96;100628.31;5018384;28;722;-40
2022/04/05 06:58:52;;;;;;;;;;;;;;;28.30;20.31;100627.31;5017233;28;1075;-40
2022/04/05 07:01:17;;;;;;;;;;;;;;;28.19;20.42;100631.38;5016775;28;805;-39
2022/04/05 07:03:42;;;;;;;;;;;;;;;28.14;20.45;100623.03;5018833;28;826;-41
2022/04/05 07:06:08;;;;;;;;;;;;;;;28.10;20.57;100627.13;5018627;28;754;-40
2022/04/05 07:08:33;;;;;;;;;;;;;;;28.08;20.31;100618.34;5017392;28;976;-39
2022/04/05 07:10:58;;;;;;;;;;;;;;;28.05;20.48;100618.75;5019797;28;1901;-38
2022/04/05 07:13:24;;;;;;;;;;;;;;;28.05;20.69;100621.44;5017210;28;755;-40
2022/04/05 07:15:49;;;;;;;;;;;;;;;28.67;19.82;100618.28;5016450;28;774;-40
2022/04/05 07:18:14;;;;;;;;;;;;;;;28.78;19.75;100623.13;5017311;28;1044;-40
2022/04/05 07:20:40;;;;;;;;;;;;;;;28.29;20.41;100622.94;5016758;28;814;-39
2022/04/05 07:23:05;;;;;;;;;;;;;;;28.19;21.12;100617.03;5016992;28;738;-40
2022/04/05 07:25:32;;;;;;;;;;;;;;;28.14;21.08;100614.06;5018094;28;850;-39
2022/04/05 07:27:57;;;;;;;;;;;;;;;28.14;20.75;100614.91;5016937;28;751;-40
2022/04/05 07:30:24;;;;;;;;;;;;;;;28.04;20.82;100612.53;5019909;28;1965;-39
2022/04/05 07:32:49;;;;;;;;;;;;;;;27.89;21.56;100604.47;5016935;28;812;-40
2022/04/05 07:35:15;;;;;;;;;;;;;;;27.83;21.42;100613.31;5016912;28;782;-40
2022/04/05 07:37:40;;;;;;;;;;;;;;;27.74;21.60;100616.13;5015882;28;1038;-40
2022/04/05 07:40:08;;;;;;;;;;;;;;;27.81;21.57;100613.50;5022588;28;867;-41
2022/04/05 07:42:34;;;;;;;;;;;;;;;27.92;21.29;100616.75;5029192;28;1231;-39
2022/04/05 07:44:59;;;;;;;;;;;;;;;27.80;21.44;100611.00;5035303;28;754;-40
2022/04/05 07:47:24;;;;;;;;;;;;;;;27.94;21.15;100607.44;5035273;28;1225;-39
2022/04/05 07:49:50;;;;;;;;;;;;;;;27.38;21.72;100601.56;5035339;28;1922;-38
2022/04/05 07:52:15;;;;;;;;;;;;;;;27.60;21.69;100603.47;5034742;28;1147;-36
2022/04/05 07:54:43;;;;;;;;;;;;;;;27.90;21.36;100605.28;5032444;28;1103;-40
2022/04/05 07:57:10;;;;;;;;;;;;;;;27.67;21.90;100608.97;5022798;28;1144;-40
2022/04/05 07:59:35;;;;;;;;;;;;;;;27.77;21.59;100598.72;5028955;28;837;-40
2022/04/05 08:02:00;;;;;;;;;;;;;;;27.67;21.47;100595.44;5035558;28;860;-40
2022/04/05 08:04:26;;;;;;;;;;;;;;;27.74;21.65;100591.81;5035560;28;821;-39
2022/04/05 08:06:51;;;;;;;;;;;;;;;27.76;21.65;100594.31;5035470;28;781;-40
2022/04/05 08:09:16;;;;;;;;;;;;;;;27.71;21.45;100591.38;5020600;28;1902;-39
2022/04/05 08:11:42;;;;;;;;;;;;;;;27.80;21.79;100589.38;5016992;28;983;-40
2022/04/05 08:14:07;;;;;;;;;;;;;;;27.77;21.44;100589.75;5024984;28;1096;-42
2022/04/05 08:16:32;;;;;;;;;;;;;;;27.75;21.76;100588.09;5034045;28;1179;-40
2022/04/05 08:18:58;;;;;;;;;;;;;;;27.77;21.91;100584.34;5036613;28;1270;-40
2022/04/05 08:21:23;;;;;;;;;;;;;;;27.85;21.90;100574.28;5026144;28;1251;-40
2022/04/05 08:23:50;;;;;;;;;;;;;;;27.85;21.89;100578.84;5021374;28;927;-40
2022/04/05 08:26:16;;;;;;;;;;;;;;;27.82;21.84;100569.25;5024069;28;781;-40
2022/04/05 08:28:41;;;;;;;;;;;;;;;27.96;21.64;100570.22;5019429;28;881;-37
2022/04/05 08:31:07;;;;;;;;;;;;;;;27.91;21.27;100574.53;5018217;28;2036;-40
2022/04/05 08:33:32;;;;;;;;;;;;;;;27.62;21.34;100558.19;5024977;28;994;-40
2022/04/05 08:35:58;;;;;;;;;;;;;;;27.75;21.62;100557.53;5038837;28;828;-40
2022/04/05 08:38:23;;;;;;;;;;;;;;;27.66;21.38;100556.78;5038061;28;1098;-38
2022/04/05 08:40:48;;;;;;;;;;;;;;;27.61;21.95;100560.06;5025894;28;942;-39
2022/04/05 08:43:14;;;;;;;;;;;;;;;27.59;21.81;100551.28;5019624;28;921;-40
2022/04/05 08:45:39;;;;;;;;;;;;;;;27.67;22.06;100538.69;5026763;28;1089;-41
2022/04/05 08:48:05;;;;;;;;;;;;;;;27.73;21.65;100536.09;5037376;28;1155;-40
2022/04/05 08:50:31;;;;;;;;;;;;;;;27.71;21.87;100538.16;5038023;28;1973;-40
2022/04/05 08:52:58;;;;;;;;;;;;;;;27.23;21.04;100530.53;5031976;28;989;-41
2022/04/05 08:55:24;;;;;;;;;;;;;;;27.21;21.81;100530.72;5037360;28;1000;-41
2022/04/05 08:57:49;;;;;;;;;;;;;;;27.32;21.95;100523.16;5033231;28;983;-40
2022/04/05 09:00:15;;;;;;;;;;;;;;;27.19;22.61;100521.13;5025225;28;850;-42
2022/04/05 09:02:53;;;;;;;;;;;;;;;27.18;22.54;100520.28;5023286;28;1033;-42
2022/04/05 09:05:25;;;;;;;;;;;;;;;27.04;22.56;100516.59;5036452;28;1119;-41
2022/04/05 09:07:50;;;;;;;;;;;;;;;27.06;22.75;100511.84;5038240;28;919;-39
2022/04/05 09:10:16;;;;;;;;;;;;;;;26.97;22.79;100511.09;5024998;28;1961;-38
2022/04/05 09:12:48;;;;;;;;;;;;;;;27.01;22.64;100503.44;5021767;28;894;-40
2022/04/05 09:15:16;;;;;;;;;;;;;;;26.99;22.53;100500.91;5035985;28;1073;-42
2022/04/05 09:17:42;;;;;;;;;;;;;;;27.15;22.65;100501.78;5018813;28;886;-40
2022/04/05 09:20:08;;;;;;;;;;;;;;;27.27;22.40;100496.72;5018933;28;821;-39
2022/04/05 09:22:34;;;;;;;;;;;;;;;27.23;22.28;100495.41;5018292;28;1148;-40
2022/04/05 09:25:05;;;;;;;;;;;;;;;27.17;22.65;100496.19;5031454;28;1088;-40
2022/04/05 09:27:47;;;;;;;;;;;;;;;27.16;22.41;100492.63;5018082;28;1068;-40
2022/04/05 09:30:19;;;;;;;;;;;;;;;27.19;22.48;100488.75;5032753;28;1965;-40
2022/04/05 09:32:48;;;;;;;;;;;;;;;27.12;22.73;100486.81;5037651;28;945;-39
2022/04/05 09:35:14;;;;;;;;;;;;;;;27.11;22.66;100476.19;5037842;28;819;-40
2022/04/05 09:37:40;;;;;;;;;;;;;;;27.17;22.60;100478.13;5028628;28;1138;-40
2022/04/05 09:40:41;;;;;;;;;;;;;;;27.18;22.59;100476.25;5022637;28;761;-41
2022/04/05 09:43:07;;;;;;;;;;;;;;;27.51;20.49;100473.91;4977219;28;1306;-40
2022/04/05 09:45:51;;;;;;;;;;;;;;;27.62;19.70;100471.72;5021473;28;1072;-42
2022/04/05 09:48:24;;;;;;;;;;;;;;;27.66;19.28;100467.59;5024639;28;1270;-40
2022/04/05 09:50:55;;;;;;;;;;;;;;;27.49;19.35;100465.16;5031591;28;1981;-41
2022/04/05 09:53:20;;;;;;;;;;;;;;;27.36;19.09;100456.94;5037218;28;804;-40
2022/04/05 09:55:46;;;;;;;;;;;;;;;27.28;18.97;100452.47;5026057;28;1068;-41
2022/04/05 09:58:11;;;;;;;;;;;;;;;27.23;18.39;100457.63;5018375;28;998;-40
2022/04/05 10:00:37;;;;;;;;;;;;;;;27.21;18.57;100448.88;5026574;28;1227;-37
2022/04/05 10:03:03;;;;;;;;;;;;;;;27.28;18.53;100438.97;5020173;28;770;-39
2022/04/05 10:05:29;;;;;;;;;;;;;;;27.69;18.62;100431.28;5027210;28;1073;-39
2022/04/05 10:07:54;;;;;;;;;;;;;;;27.27;18.97;100434.63;5036320;28;1275;-39
2022/04/05 10:10:19;;;;;;;;;;;;;;;27.16;18.93;100424.31;5030117;28;1902;-39
2022/04/05 10:12:46;;;;;;;;;;;;;;;27.16;19.86;100425.13;5036771;28;1344;-38
2022/04/05 10:15:11;;;;;;;;;;;;;;;27.15;20.08;100418.06;5029249;28;1274;-39
2022/04/05 10:17:36;;;;;;;;;;;;;;;27.03;19.93;100412.34;5036523;28;1239;-42
2022/04/05 10:20:02;;;;;;;;;;;;;;;27.00;20.06;100410.00;5036236;28;1195;-40
2022/04/05 10:22:27;;;;;;;;;;;;;;;27.05;19.85;100404.03;5035523;28;1171;-38
2022/04/05 10:24:53;;;;;;;;;;;;;;;27.08;19.70;100409.06;5033502;28;1246;-38
2022/04/05 10:27:19;;;;;;;;;;;;;;;27.14;19.39;100411.00;5036094;28;1092;-37
2022/04/05 10:29:44;;;;;;;;;;;;;;;27.12;19.85;100405.81;5018473;28;1972;-40
2022/04/05 10:32:13;;;;;;;;;;;;;;;26.95;19.84;100407.03;5017411;28;1045;-43
2022/04/05 10:34:42;;;;;;;;;;;;;;;27.02;19.94;100405.28;5017259;28;932;-43
2022/04/05 10:37:09;;;;;;;;;;;;;;;27.20;20.36;100404.00;5017348;28;900;-37
2022/04/05 10:39:34;;;;;;;;;;;;;;;27.27;20.22;100396.81;5020129;28;1073;-42
2022/04/05 10:42:09;;;;;;;;;;;;;;;27.46;20.76;100397.19;5022204;28;873;-39
2022/04/05 10:44:35;;;;;;;;;;;;;;;27.41;20.74;100388.84;5017344;28;837;-39
2022/04/05 10:47:01;;;;;;;;;;;;;;;27.31;21.10;100389.97;5017571;28;890;-40
2022/04/05 10:49:40;;;;;;;;;;;;;;;27.37;21.03;100383.81;5017215;28;1993;-39
2022/04/05 10:52:06;;;;;;;;;;;;;;;27.34;21.16;100384.19;5030280;28;723;-40
2022/04/05 10:54:35;;;;;;;;;;;;;;;27.71;20.79;100378.72;5019858;28;849;-41
2022/04/05 10:57:16;;;;;;;;;;;;;;;27.78;20.84;100380.66;5017125;28;742;-41
2022/04/05 10:59:45;;;;;;;;;;;;;;;27.93;20.34;100375.09;5017360;28;892;-41
2022/04/05 11:02:28;;;;;;;;;;;;;;;27.82;20.89;100368.41;5017498;28;838;-42
2022/04/05 11:05:01;;;;;;;;;;;;;;;27.56;21.11;100365.25;5016737;28;850;-40
2022/04/05 11:07:26;;;;;;;;;;;;;;;27.39;21.61;100357.44;5020746;28;814;-38
2022/04/05 11:09:55;;;;;;;;;;;;;;;27.46;21.60;100362.91;5024160;28;1976;-43
2022/04/05 11:12:27;;;;;;;;;;;;;;;27.59;21.38;100359.47;5030394;28;1187;-42
2022/04/05 11:14:56;;;;;;;;;;;;;;;27.63;21.29;100346.41;5017139;28;788;-40
2022/04/05 11:17:23;;;;;;;;;;;;;;;27.46;21.82;100343.16;5016894;28;839;-42
2022/04/05 11:19:50;;;;;;;;;;;;;;;27.63;21.74;100349.94;5017918;28;821;-43
2022/04/05 11:22:21;;;;;;;;;;;;;;;27.66;21.53;100343.31;5016878;28;853;-42
2022/04/05 11:25:00;;;;;;;;;;;;;;;27.71;21.63;100345.47;5021110;28;867;-43
2022/04/05 11:27:29;;;;;;;;;;;;;;;27.67;21.87;100344.16;5030083;28;858;-42
2022/04/05 11:30:13;;;;;;;;;;;;;;;27.71;21.78;100343.56;5035435;28;1906;-40
2022/04/05 11:32:38;;;;;;;;;;;;;;;27.43;22.34;100330.88;5026108;28;865;-42
2022/04/05 11:35:04;;;;;;;;;;;;;;;27.34;22.50;100321.25;5016486;28;826;-43
2022/04/05 11:37:32;;;;;;;;;;;;;;;27.41;22.36;100326.72;5016498;28;1015;-42
2022/04/05 11:39:59;;;;;;;;;;;;;;;27.60;22.20;100317.06;5019015;28;864;-42
2022/04/05 11:42:25;;;;;;;;;;;;;;;27.66;22.05;100315.47;5016629;28;881;-42
2022/04/05 11:44:50;;;;;;;;;;;;;;;27.62;22.41;100317.72;5015879;28;1031;-42
2022/04/05 11:47:15;;;;;;;;;;;;;;;27.41;22.31;100314.03;5016916;28;1181;-39
2022/04/05 11:49:41;;;;;;;;;;;;;;;27.55;22.50;100316.81;5029401;28;1902;-39
2022/04/05 11:52:08;;;;;;;;;;;;;;;27.41;22.36;100303.22;5034353;28;1208;-39
2022/04/05 11:56:00;;;;;;;;;;;;;;;27.72;23.21;100306.59;5033471;28;1185;-41
2022/04/05 11:57:18;;;;;;;;;;;;;;;27.67;23.19;100298.22;5036566;28;1060;-38
2022/04/05 11:59:43;;;;;;;;;;;;;;;28.07;22.59;100287.66;5034775;28;1298;-42
2022/04/05 12:02:09;;;;;;;;;;;;;;;27.88;22.47;100286.50;5034947;28;1252;-40
2022/04/05 12:04:34;;;;;;;;;;;;;;;27.94;22.27;100291.13;5026688;28;1294;-42
2022/04/05 12:07:01;;;;;;;;;;;;;;;27.86;22.52;100289.41;5020483;28;822;-40
2022/04/05 12:09:26;;;;;;;;;;;;;;;27.84;22.49;100282.56;5025734;28;1898;-39
2022/04/05 12:11:52;;;;;;;;;;;;;;;28.42;22.53;100285.94;5019895;28;820;-40
2022/04/05 12:14:22;;;;;;;;;;;;;;;27.79;22.60;100277.75;5032504;28;962;-39
2022/04/05 12:16:47;;;;;;;;;;;;;;;27.68;22.68;100279.13;5039111;28;817;-40
2022/04/05 12:19:16;;;;;;;;;;;;;;;27.57;22.88;100277.78;5038571;28;766;-40
2022/04/05 12:21:42;;;;;;;;;;;;;;;27.65;22.84;100267.84;5036389;28;965;-42
2022/04/05 12:24:07;;;;;;;;;;;;;;;27.81;22.72;100262.16;5037009;28;1210;-42
2022/04/05 12:26:32;;;;;;;;;;;;;;;27.69;23.13;100252.94;5033349;28;1037;-39
2022/04/05 12:28:58;;;;;;;;;;;;;;;27.85;23.05;100249.06;5038998;28;970;-40
2022/04/05 12:31:28;;;;;;;;;;;;;;;27.98;22.91;100243.72;5026444;28;1898;-40
2022/04/05 12:34:08;;;;;;;;;;;;;;;28.08;22.97;100242.50;5028355;28;1041;-42
2022/04/05 12:36:34;;;;;;;;;;;;;;;27.89;23.00;100239.53;5032138;28;1283;-42
2022/04/05 12:39:00;;;;;;;;;;;;;;;27.91;23.05;100231.22;5029924;28;1305;-43
2022/04/05 12:41:26;;;;;;;;;;;;;;;27.78;23.22;100234.72;5029011;28;1087;-40
2022/04/05 12:44:04;;;;;;;;;;;;;;;27.86;23.08;100237.25;5023369;28;1227;-41
2022/04/05 12:46:37;;;;;;;;;;;;;;;27.99;23.72;100225.66;5019214;28;814;-40
2022/04/05 12:49:22;;;;;;;;;;;;;;;28.29;23.70;100219.94;5022621;28;806;-41